Overview Statistics Trail Chart Weather Telemetry Raw packets
 

This is the latest recevied weather packets stored in our database for station/object EA5JMY-10. If no packets are shown the sender has not sent any weather packets the latest 10 day(s).

<< 15 16 17 18 19 20 21 >>
Time Temp. Humidity Pressure Rain* Wind** Luminosity Snow
1788255610 36.11° C 37% 1022.1 hPa - - - -
1788254710 34.44° C 41% 1022.1 hPa - - - -
1788253810 36.67° C 35% 1022.1 hPa - - - -
1788252909 37.22° C 34% 1022 hPa - - - -
1788252009 35° C 41% 1022 hPa - - - -
1788251109 36.11° C 40% 1021.8 hPa - - - -
1788250209 32.22° C 48% 1021.7 hPa - - - -
1788249309 35.56° C 41% 1021.5 hPa - - - -
1788248408 31.11° C 54% 1021.7 hPa - - - -
1788247508 30° C 59% 1021.6 hPa - - - -
1788246608 32.78° C 49% 1021.4 hPa - - - -
1788245708 31.67° C 52% 1021.2 hPa - - - -
1788244807 31.11° C 54% 1020.7 hPa - - - -
1788243907 30° C 56% 1020.8 hPa - - - -
1788243007 26.67° C 66% 1020.7 hPa - - - -
1788242107 26.11° C 72% 1020.8 hPa - - - -
1788241207 26.11° C 73% 1020.6 hPa - - - -
1788240306 26.11° C 73% 1020.2 hPa - - - -
1788239406 26.11° C 74% 1020.3 hPa - - - -
1788238506 26.11° C 75% 1020.1 hPa - - - -
1788237606 25.56° C 73% 1020.1 hPa - - - -
1788236706 25.56° C 72% 1020.1 hPa - - - -
1788235806 26.11° C 73% 1019.9 hPa - - - -
1788234906 26.11° C 71% 1020.2 hPa - - - -
1788234006 25.56° C 74% 1020.4 hPa - - - -

* Rain since midnight (hover to see other rain measurements)
** Current wind speed in m/s (hover to see current wind gust speed)